Federal Oshima — VRVY8 — position and weather

sailwx.info

Track history (hours):
 
Tides and Currents Weather Stations Pressure Air Temp Water Temp Dewpoint Dewpoint Depression Visibility Wind Speed Wind Dir Waves Ship Positions

Federal Oshima

Last reported at 2015-Mar-01 22:05 UTC. Time now 2015-Mar-03 00:41 UTC.
Position N 46°15' W 123°26'.

Length 200 m; draft 6.8 m.

Type: Cargo ship. MMSI: 477675000.

Date/timePositionNaut miles runAvg speedWind from/ knotsBaromVisibWave heightAir tempDewpointWater temp
2015-Mar-01 22:05N 46°15' W 123°26'510.2
2015-Mar-01 21:33N 46°15' W 123°34'1110.8
2015-Mar-01 20:34N 46°12' W 123°49'9 9.2
2015-Mar-01 19:34N 46°15' W 124°01'1111.2
2015-Mar-01 18:32N 46°10' W 124°16'3 3.0
2015-Mar-01 17:34N 46°08' W 124°20'7 6.6
2015-Mar-01 16:33N 46°04' W 124°26'8 7.5
2015-Mar-01 15:33N 45°58' W 124°34'6 2.5
2015-Mar-01 13:13N 45°58' W 124°42'2 0.6
2015-Mar-01 09:33N 46°00' W 124°43'  
2015-Feb-25 20:26N 36°42' W 128°13'1111.4
2015-Feb-25 19:26N 36°32' W 128°08'1511.6
2015-Feb-25 18:08N 36°18' W 128°00'1811.6
2015-Feb-25 16:33N 36°01' W 127°50'1212.0
2015-Feb-25 15:33N 35°50' W 127°44'1212.1
2015-Feb-25 14:33N 35°40' W 127°37'1212.0
2015-Feb-25 13:32N 35°29' W 127°31'1411.6
2015-Feb-25 12:18N 35°16' W 127°23'911.7
2015-Feb-25 11:31N 35°08' W 127°18'1411.9
2015-Feb-25 10:22N 34°55' W 127°10'1011.8
2015-Feb-25 09:33N 34°47' W 127°05'1711.9
2015-Feb-25 08:07N 34°31' W 126°56'911.9
2015-Feb-25 07:22N 34°23' W 126°51'1112.2
2015-Feb-25 06:26N 34°13' W 126°45'7112.1
2015-Feb-25 00:33N 33°15' W 125°55'2812.4
2015-Feb-24 22:18N 32°53' W 125°36'1012.1
2015-Feb-24 21:28N 32°44' W 125°29'3911.8
2015-Feb-24 18:09N 32°13' W 125°02'  
Track history (hours):
 
Tides and Currents Weather Stations Pressure Air Temp Water Temp Dewpoint Dewpoint Depression Visibility Wind Speed Wind Dir Waves Ship Positions

Federal Oshima

Last reported at 2015-Mar-01 22:05 UTC. Time now 2015-Mar-03 00:41 UTC.
Position N 46°15' W 123°26'.

Length 200 m; draft 6.8 m.

Type: Cargo ship. MMSI: 477675000.

Date/timePositionNaut miles runAvg speedWind from/ knotsBaromVisibWave heightAir tempDewpointWater temp
2015-Mar-01 22:05N 46°15' W 123°26'510.2
2015-Mar-01 21:33N 46°15' W 123°34'1110.8
2015-Mar-01 20:34N 46°12' W 123°49'9 9.2
2015-Mar-01 19:34N 46°15' W 124°01'1111.2
2015-Mar-01 18:32N 46°10' W 124°16'3 3.0
2015-Mar-01 17:34N 46°08' W 124°20'7 6.6
2015-Mar-01 16:33N 46°04' W 124°26'8 7.5
2015-Mar-01 15:33N 45°58' W 124°34'6 2.5
2015-Mar-01 13:13N 45°58' W 124°42'2 0.6
2015-Mar-01 09:33N 46°00' W 124°43'  
2015-Feb-25 20:26N 36°42' W 128°13'1111.4
2015-Feb-25 19:26N 36°32' W 128°08'1511.6
2015-Feb-25 18:08N 36°18' W 128°00'1811.6
2015-Feb-25 16:33N 36°01' W 127°50'1212.0
2015-Feb-25 15:33N 35°50' W 127°44'1212.1
2015-Feb-25 14:33N 35°40' W 127°37'1212.0
2015-Feb-25 13:32N 35°29' W 127°31'1411.6
2015-Feb-25 12:18N 35°16' W 127°23'911.7
2015-Feb-25 11:31N 35°08' W 127°18'1411.9
2015-Feb-25 10:22N 34°55' W 127°10'1011.8
2015-Feb-25 09:33N 34°47' W 127°05'1711.9
2015-Feb-25 08:07N 34°31' W 126°56'911.9
2015-Feb-25 07:22N 34°23' W 126°51'1112.2
2015-Feb-25 06:26N 34°13' W 126°45'7112.1
2015-Feb-25 00:33N 33°15' W 125°55'2812.4
2015-Feb-24 22:18N 32°53' W 125°36'1012.1
2015-Feb-24 21:28N 32°44' W 125°29'3911.8
2015-Feb-24 18:09N 32°13' W 125°02'  

Dump ship's entire track history